San Diego, California
Traffic Map
Current Weather Conditions
San Diego, California
Broken Clouds
Broken Clouds
53°
Feels Like: 53°
Wind Chill: 53° Ceiling: 25000
Heat Index: 53° Visibility: 10mi
Dew Point: 21° Wind: 0mph
Humidity: 29% Direction: ° ()
Pressure: 30.29in Gusts: 0mph
Raw Report DataKSAN 281751Z 00000KT 10SM BKN250 12/M06 A3029 RMK AO2 SLP256 T01171061 10117 20067 50006
Traffic Incident Summary
Active as of:
Severity:
Category:
InformationThere was an issue retrieving the traffic information for this location. Please try a different location or try again shortly.
Advertisements
Track Severe Weather on mobile